Time;durP1;ratioP1;P1;durP2;ratioP2;P2;SDS_P1;SDS_P2;PMS_P1;PMS_P2;Temp;Humidity;BMP_temperature;BMP_pressure;BME280_temperature;BME280_humidity;BME280_pressure;Samples;Min_cycle;Max_cycle;Signal;HPM_P1;HPM_P2
2023/08/19 00:00:23;;;;;;;3.97;3.33;;;;;;;20.46;100.00;96077.88;5095857;28;20028;-70
2023/08/19 00:02:49;;;;;;;3.53;3.30;;;;;;;20.47;100.00;96084.06;5098341;28;20516;-70
2023/08/19 00:05:15;;;;;;;3.97;3.67;;;;;;;20.41;100.00;96092.81;5097618;28;20388;-71
2023/08/19 00:07:40;;;;;;;8.27;3.50;;;;;;;20.38;100.00;96093.22;5095607;28;20098;-70
2023/08/19 00:10:06;;;;;;;5.03;3.60;;;;;;;20.34;100.00;96095.47;5103617;28;20042;-70
2023/08/19 00:12:32;;;;;;;4.82;3.88;;;;;;;20.36;100.00;96092.59;5100661;28;20030;-70
2023/08/19 00:14:57;;;;;;;3.55;3.20;;;;;;;20.36;100.00;96089.91;5095411;28;20467;-70
2023/08/19 00:17:23;;;;;;;4.32;3.97;;;;;;;20.33;100.00;96102.66;5095463;28;20028;-70
2023/08/19 00:19:50;;;;;;;6.18;4.10;;;;;;;20.36;100.00;96095.25;5104089;28;20016;-70
2023/08/19 00:22:15;;;;;;;3.88;3.65;;;;;;;20.35;100.00;96090.94;5095407;28;20047;-70
2023/08/19 00:24:41;;;;;;;3.92;3.53;;;;;;;20.35;100.00;96096.28;5095266;28;20031;-71
2023/08/19 00:27:06;;;;;;;5.82;4.28;;;;;;;20.33;100.00;96101.81;5105508;27;20036;-70
2023/08/19 00:29:31;;;;;;;6.43;3.80;;;;;;;20.32;100.00;96086.78;5095227;28;20066;-70
2023/08/19 00:31:57;;;;;;;8.40;3.70;;;;;;;20.31;100.00;96094.00;5099272;28;20023;-70
2023/08/19 00:34:22;;;;;;;5.43;4.00;;;;;;;20.28;100.00;96105.09;5120896;27;20027;-70
2023/08/19 00:36:48;;;;;;;3.95;3.47;;;;;;;20.25;100.00;96096.63;5095829;28;20024;-70
2023/08/19 00:39:14;;;;;;;7.10;4.10;;;;;;;20.24;100.00;96085.13;5095194;28;20404;-70
2023/08/19 00:41:39;;;;;;;4.03;3.70;;;;;;;20.20;100.00;96099.84;5094605;28;20512;-70
2023/08/19 00:44:05;;;;;;;4.30;3.90;;;;;;;20.18;100.00;96097.41;5095160;28;20028;-70
2023/08/19 00:46:31;;;;;;;7.10;3.92;;;;;;;20.13;100.00;96110.53;5108213;28;20023;-70
2023/08/19 00:48:58;;;;;;;3.90;3.70;;;;;;;20.11;100.00;96114.38;5111824;27;20050;-70
2023/08/19 00:51:24;;;;;;;5.63;3.60;;;;;;;20.10;100.00;96118.09;5107818;28;20367;-70
2023/08/19 00:53:50;;;;;;;3.97;3.65;;;;;;;20.09;100.00;96098.53;5095026;28;20069;-70
2023/08/19 00:56:15;;;;;;;5.43;3.65;;;;;;;20.09;100.00;96092.38;5114226;28;20015;-70
2023/08/19 00:58:41;;;;;;;6.43;3.72;;;;;;;20.02;100.00;96097.66;5099805;28;20468;-70
2023/08/19 01:01:07;;;;;;;4.30;3.90;;;;;;;20.00;100.00;96123.75;5094688;28;20067;-70
2023/08/19 01:03:33;;;;;;;5.20;3.50;;;;;;;19.99;100.00;96114.06;5107149;28;20541;-70
2023/08/19 01:06:26;;;;;;;4.60;3.65;;;;;;;19.93;100.00;96102.31;5095533;28;20020;-70
2023/08/19 01:09:04;;;;;;;6.03;3.90;;;;;;;19.96;100.00;96104.59;5095139;28;20032;-70
2023/08/19 01:11:45;;;;;;;4.22;3.83;;;;;;;19.93;100.00;96101.50;5094510;28;20053;-70
2023/08/19 01:14:25;;;;;;;4.43;4.03;;;;;;;19.85;100.00;96113.91;5094506;28;20054;-70
2023/08/19 01:16:53;;;;;;;5.15;3.45;;;;;;;19.81;100.00;96114.50;5094417;28;20388;-71
2023/08/19 01:19:32;;;;;;;5.07;4.00;;;;;;;19.78;100.00;96128.22;5103498;28;20032;-70
2023/08/19 01:22:03;;;;;;;5.90;4.00;;;;;;;19.73;100.00;96115.44;5094573;28;20051;-71
2023/08/19 01:24:38;;;;;;;6.18;5.57;;;;;;;19.75;100.00;96113.41;5094523;28;20019;-71
2023/08/19 01:27:04;;;;;;;;;;;;;;;19.72;100.00;96114.59;5108411;28;20074;-70
2023/08/19 01:29:29;;;;;;;7.25;4.30;;;;;;;19.68;100.00;96123.19;5101432;28;19920;-70
2023/08/19 01:31:55;;;;;;;8.43;4.65;;;;;;;19.74;100.00;96117.09;5093858;28;20016;-70
2023/08/19 01:34:22;;;;;;;4.53;4.10;;;;;;;19.72;100.00;96113.78;5108532;27;20023;-70
2023/08/19 01:36:53;;;;;;;5.40;3.80;;;;;;;19.73;100.00;96116.25;5093892;28;20031;-70
2023/08/19 01:39:20;;;;;;;4.60;3.85;;;;;;;19.69;100.00;96147.03;5094367;28;20112;-70
2023/08/19 01:41:47;;;;;;;4.45;4.05;;;;;;;19.65;100.00;96129.72;5089360;28;20581;-70
2023/08/19 01:44:13;;;;;;;4.82;4.10;;;;;;;19.63;100.00;96126.44;5106985;28;20020;-71
2023/08/19 01:46:38;;;;;;;8.77;4.50;;;;;;;19.61;100.00;96144.47;5103932;28;20158;-70
2023/08/19 01:49:04;;;;;;;5.90;4.32;;;;;;;19.59;100.00;96131.31;5114354;27;20125;-70
2023/08/19 01:51:30;;;;;;;7.30;3.80;;;;;;;19.54;100.00;96123.03;5112981;28;20031;-71
2023/08/19 01:53:56;;;;;;;4.35;3.58;;;;;;;19.53;100.00;96134.75;5104937;28;20035;-71
2023/08/19 01:56:21;;;;;;;5.30;4.15;;;;;;;19.51;100.00;96128.75;5106626;28;20021;-70
2023/08/19 01:58:46;;;;;;;9.52;5.03;;;;;;;19.52;100.00;96133.09;5105960;28;20024;-70
2023/08/19 02:01:13;;;;;;;7.35;5.10;;;;;;;19.49;100.00;96140.63;5101431;28;20023;-70
2023/08/19 02:03:38;;;;;;;5.57;4.47;;;;;;;19.43;100.00;96126.19;5109179;28;20077;-70
2023/08/19 02:06:04;;;;;;;4.55;3.63;;;;;;;19.38;100.00;96136.59;5096639;28;20031;-70
2023/08/19 02:08:29;;;;;;;4.40;4.05;;;;;;;19.33;100.00;96142.47;5092340;28;20095;-70
2023/08/19 02:10:54;;;;;;;9.38;5.57;;;;;;;19.30;100.00;96142.84;5093801;28;20103;-70
2023/08/19 02:13:20;;;;;;;3.95;3.63;;;;;;;19.27;100.00;96154.75;5093437;28;20492;-70
2023/08/19 02:15:45;;;;;;;4.47;4.00;;;;;;;19.23;100.00;96152.63;5094267;28;20396;-72
2023/08/19 02:18:11;;;;;;;4.93;4.07;;;;;;;19.18;100.00;96163.84;5094784;28;20478;-70
2023/08/19 02:20:36;;;;;;;6.15;3.55;;;;;;;19.16;100.00;96161.38;5100998;28;20024;-71
2023/08/19 02:23:02;;;;;;;5.53;3.85;;;;;;;19.16;100.00;96150.72;5099279;28;20027;-70
2023/08/19 02:25:27;;;;;;;6.10;4.05;;;;;;;19.13;100.00;96168.94;5101606;28;20020;-72
2023/08/19 02:27:53;;;;;;;4.45;3.67;;;;;;;19.11;100.00;96153.09;5099465;28;20482;-72
2023/08/19 02:30:18;;;;;;;4.30;3.80;;;;;;;19.09;100.00;96146.28;5093248;28;20097;-70
2023/08/19 02:32:43;;;;;;;3.97;3.60;;;;;;;19.09;100.00;96148.97;5106541;27;20577;-70
2023/08/19 02:35:10;;;;;;;6.75;4.65;;;;;;;19.07;100.00;96165.16;5097985;27;20020;-70
2023/08/19 02:37:35;;;;;;;4.57;4.07;;;;;;;19.03;100.00;96164.69;5097737;28;20038;-70
2023/08/19 02:40:01;;;;;;;4.25;3.85;;;;;;;19.02;100.00;96162.22;5097562;28;20016;-70
2023/08/19 02:42:26;;;;;;;4.75;4.18;;;;;;;18.96;100.00;96168.25;5102412;28;20085;-72
2023/08/19 02:44:52;;;;;;;18.17;4.20;;;;;;;18.88;100.00;96164.63;5095860;28;20028;-70
2023/08/19 02:47:17;;;;;;;4.65;3.75;;;;;;;18.87;100.00;96164.84;5097158;28;20111;-70
2023/08/19 02:49:43;;;;;;;5.60;3.80;;;;;;;18.89;100.00;96168.16;5099017;27;20503;-70
2023/08/19 02:52:09;;;;;;;3.53;3.22;;;;;;;18.85;100.00;96167.69;5097442;28;20028;-70
2023/08/19 02:54:34;;;;;;;4.90;3.75;;;;;;;18.79;100.00;96173.75;5104746;28;20030;-70
2023/08/19 02:57:00;;;;;;;5.50;4.00;;;;;;;18.79;100.00;96159.56;5102327;28;20436;-70
2023/08/19 02:59:25;;;;;;;4.53;3.80;;;;;;;18.79;100.00;96167.56;5097302;28;20069;-70
2023/08/19 03:01:50;;;;;;;5.53;4.00;;;;;;;18.78;100.00;96158.75;5098434;28;20041;-70
2023/08/19 03:04:16;;;;;;;5.20;3.90;;;;;;;18.81;100.00;96161.06;5096785;28;20541;-70
2023/08/19 03:06:42;;;;;;;4.15;3.80;;;;;;;18.80;100.00;96170.06;5096617;28;20024;-70
2023/08/19 03:09:08;;;;;;;4.45;4.05;;;;;;;18.80;100.00;96158.59;5097006;28;20024;-70
2023/08/19 03:11:35;;;;;;;7.20;3.75;;;;;;;18.81;100.00;96161.06;5110122;28;20100;-70
2023/08/19 03:14:00;;;;;;;6.10;4.10;;;;;;;18.78;100.00;96157.91;5096625;28;20083;-70
2023/08/19 03:16:26;;;;;;;5.43;4.18;;;;;;;18.73;100.00;96161.97;5100639;28;20047;-70
2023/08/19 03:18:51;;;;;;;5.47;4.15;;;;;;;18.73;100.00;96158.47;5096732;28;20395;-70
2023/08/19 03:21:16;;;;;;;4.22;3.83;;;;;;;18.75;100.00;96172.47;5098292;28;20024;-70
2023/08/19 03:23:42;;;;;;;3.88;3.55;;;;;;;18.72;100.00;96164.81;5108646;27;20055;-70
2023/08/19 03:26:07;;;;;;;4.47;4.07;;;;;;;18.71;100.00;96149.84;5101167;27;20045;-72
2023/08/19 03:28:33;;;;;;;4.38;4.05;;;;;;;18.69;100.00;96151.88;5097999;28;20539;-70
2023/08/19 03:30:58;;;;;;;4.22;3.92;;;;;;;18.65;100.00;96151.38;5102173;28;20019;-70
2023/08/19 03:33:23;;;;;;;6.57;4.00;;;;;;;18.57;100.00;96162.13;5098483;28;20087;-70
2023/08/19 03:35:49;;;;;;;7.18;4.15;;;;;;;18.52;100.00;96168.00;5096422;28;20069;-70
2023/08/19 03:38:15;;;;;;;4.32;3.85;;;;;;;18.54;100.00;96159.81;5109090;28;20358;-70
2023/08/19 03:40:40;;;;;;;3.97;3.67;;;;;;;18.53;100.00;96160.81;5096419;28;20031;-70
2023/08/19 03:43:09;;;;;;;4.00;3.80;;;;;;;18.50;100.00;96154.03;5093646;28;20028;-70
2023/08/19 03:45:34;;;;;;;4.28;3.92;;;;;;;18.46;100.00;96158.06;5098107;28;20023;-72
2023/08/19 03:48:00;;;;;;;5.10;3.83;;;;;;;18.43;100.00;96164.56;5097913;28;20472;-70
2023/08/19 03:50:25;;;;;;;4.90;3.78;;;;;;;18.42;100.00;96178.06;5082088;28;20282;-70
2023/08/19 03:52:51;;;;;;;4.03;3.72;;;;;;;18.40;100.00;96170.28;5095957;28;20023;-70
2023/08/19 03:55:16;;;;;;;6.72;4.07;;;;;;;18.40;100.00;96172.94;5095893;28;20119;-70
2023/08/19 03:57:42;;;;;;;5.50;4.68;;;;;;;18.40;100.00;96177.44;5115513;28;20050;-70
2023/08/19 04:00:07;;;;;;;5.35;4.28;;;;;;;18.39;100.00;96173.09;5102622;28;20083;-70
2023/08/19 04:02:33;;;;;;;5.10;4.60;;;;;;;18.38;100.00;96177.63;5096006;28;20460;-70
2023/08/19 04:05:04;;;;;;;4.35;3.92;;;;;;;18.36;100.00;96178.81;5109060;28;20047;-70
2023/08/19 04:07:30;;;;;;;4.28;3.90;;;;;;;18.31;100.00;96176.66;5095530;28;20024;-72
2023/08/19 04:09:56;;;;;;;5.20;4.05;;;;;;;18.28;100.00;96172.53;5095332;28;20032;-70
2023/08/19 04:12:22;;;;;;;4.68;4.28;;;;;;;18.19;100.00;96173.59;5095595;28;20049;-72
2023/08/19 04:14:48;;;;;;;4.10;3.70;;;;;;;18.12;100.00;96189.44;5099657;28;20031;-70
2023/08/19 04:17:13;;;;;;;5.50;3.65;;;;;;;18.11;100.00;96192.31;5095704;28;20020;-70
2023/08/19 04:19:38;;;;;;;5.88;4.28;;;;;;;18.11;100.00;96193.13;5108477;28;20030;-70
2023/08/19 04:22:04;;;;;;;6.35;4.15;;;;;;;18.12;100.00;96196.63;5095448;28;20035;-69
2023/08/19 04:24:29;;;;;;;4.90;4.13;;;;;;;18.09;100.00;96199.66;5095084;28;20107;-70
2023/08/19 04:26:55;;;;;;;4.28;3.88;;;;;;;18.09;100.00;96200.47;5102329;27;20055;-72
2023/08/19 04:29:20;;;;;;;4.80;4.28;;;;;;;18.10;100.00;96207.44;5098695;28;20130;-72
2023/08/19 04:31:46;;;;;;;6.15;5.65;;;;;;;18.08;100.00;96201.47;5096047;28;20101;-71
2023/08/19 04:34:11;;;;;;;10.48;9.50;;;;;;;18.14;100.00;96208.78;5102509;28;20468;-70
2023/08/19 04:36:37;;;;;;;8.10;7.30;;;;;;;18.13;100.00;96217.78;5097180;28;20052;-70
2023/08/19 04:39:05;;;;;;;7.03;6.38;;;;;;;18.09;100.00;96223.63;5095460;28;20028;-70
2023/08/19 04:41:32;;;;;;;5.50;5.00;;;;;;;18.04;100.00;96219.66;5112069;28;20026;-72
2023/08/19 04:43:57;;;;;;;4.93;4.45;;;;;;;18.08;100.00;96220.13;5103803;28;20095;-70
2023/08/19 04:46:23;;;;;;;5.07;4.68;;;;;;;18.09;100.00;96226.28;5105756;28;20032;-72
2023/08/19 04:48:48;;;;;;;7.07;5.25;;;;;;;18.07;100.00;96230.97;5106814;27;20064;-70
2023/08/19 04:51:14;;;;;;;6.28;4.90;;;;;;;18.02;100.00;96221.69;5095669;27;20024;-70
2023/08/19 04:53:39;;;;;;;8.43;4.70;;;;;;;17.99;100.00;96226.50;5095051;28;20030;-72
2023/08/19 04:56:04;;;;;;;5.78;4.70;;;;;;;17.94;100.00;96229.66;5094482;28;20020;-72
2023/08/19 04:58:30;;;;;;;8.73;4.88;;;;;;;17.92;100.00;96242.34;5094845;28;20032;-72
2023/08/19 05:00:55;;;;;;;5.80;4.63;;;;;;;17.94;100.00;96250.16;5106501;28;20066;-71
2023/08/19 05:03:21;;;;;;;5.32;4.60;;;;;;;17.97;100.00;96239.97;5093732;28;20102;-72
2023/08/19 05:05:46;;;;;;;6.20;4.53;;;;;;;18.02;100.00;96250.13;5107640;28;20103;-70
2023/08/19 05:08:12;;;;;;;8.00;4.65;;;;;;;18.04;100.00;96246.31;5094737;28;20479;-70
2023/08/19 05:10:37;;;;;;;6.85;4.47;;;;;;;18.08;100.00;96243.28;5094473;28;20507;-71
2023/08/19 05:13:03;;;;;;;5.93;4.78;;;;;;;18.08;100.00;96245.94;5098079;28;20627;-71
2023/08/19 05:15:28;;;;;;;5.80;4.68;;;;;;;18.06;100.00;96238.13;5094209;28;20401;-69
2023/08/19 05:17:54;;;;;;;5.70;4.35;;;;;;;18.09;100.00;96242.28;5092929;28;20113;-72
2023/08/19 05:20:19;;;;;;;5.47;4.40;;;;;;;18.08;100.00;96244.09;5094567;28;20015;-72
2023/08/19 05:22:45;;;;;;;5.47;4.63;;;;;;;18.10;100.00;96246.59;5076293;28;20508;-72
2023/08/19 05:25:10;;;;;;;4.70;4.30;;;;;;;18.16;100.00;96244.06;5094267;28;20404;-71
2023/08/19 05:27:36;;;;;;;5.28;4.47;;;;;;;18.19;100.00;96258.84;5098462;27;20475;-72
2023/08/19 05:30:04;;;;;;;5.38;4.57;;;;;;;18.22;100.00;96263.00;5096928;28;20051;-71
2023/08/19 05:32:30;;;;;;;4.97;4.55;;;;;;;18.32;100.00;96247.63;5093410;28;20038;-70
2023/08/19 05:34:55;;;;;;;4.90;4.20;;;;;;;18.36;100.00;96242.75;5097975;28;20443;-69
2023/08/19 05:37:20;;;;;;;9.93;4.93;;;;;;;18.43;100.00;96241.03;5114441;28;20164;-70
2023/08/19 05:39:46;;;;;;;4.95;4.55;;;;;;;18.54;100.00;96235.31;5110446;28;20035;-70
2023/08/19 05:42:12;;;;;;;4.85;4.45;;;;;;;18.65;100.00;96238.53;5103594;28;20035;-69
2023/08/19 05:44:37;;;;;;;8.40;4.35;;;;;;;18.75;100.00;96236.47;5093171;28;20032;-69
2023/08/19 05:47:03;;;;;;;5.80;4.85;;;;;;;18.66;100.00;96248.19;5104887;28;20027;-69
2023/08/19 05:49:29;;;;;;;5.10;4.60;;;;;;;18.59;100.00;96250.78;5099917;28;20015;-70
2023/08/19 05:51:55;;;;;;;5.50;4.30;;;;;;;18.54;100.00;96255.78;5094291;28;20024;-70
2023/08/19 05:54:20;;;;;;;6.32;4.30;;;;;;;18.60;100.00;96253.25;5109690;28;20070;-72
2023/08/19 05:56:45;;;;;;;5.13;4.07;;;;;;;18.73;100.00;96249.97;5102503;28;20138;-69
2023/08/19 05:59:11;;;;;;;6.68;4.63;;;;;;;18.81;100.00;96245.59;5094455;28;20031;-71
2023/08/19 06:01:36;;;;;;;6.53;5.40;;;;;;;18.84;100.00;96253.22;5094315;28;20035;-71
2023/08/19 06:04:02;;;;;;;7.57;5.20;;;;;;;19.03;100.00;96249.25;5094312;28;20024;-72
2023/08/19 06:06:28;;;;;;;4.63;4.30;;;;;;;19.23;100.00;96256.72;5096567;28;20557;-72
2023/08/19 06:08:53;;;;;;;4.68;4.28;;;;;;;19.35;100.00;96252.59;5096661;28;20028;-72
2023/08/19 06:11:18;;;;;;;6.25;4.30;;;;;;;19.55;100.00;96252.03;5101806;28;20027;-71
2023/08/19 06:13:44;;;;;;;5.95;4.78;;;;;;;19.65;100.00;96257.94;5096949;28;20032;-72
2023/08/19 06:16:09;;;;;;;6.28;4.22;;;;;;;19.80;100.00;96247.22;5096465;28;20047;-71
2023/08/19 06:18:35;;;;;;;4.43;4.13;;;;;;;19.96;100.00;96243.53;5096587;28;20028;-71
2023/08/19 06:21:02;;;;;;;7.60;4.18;;;;;;;20.13;100.00;96232.63;5097818;28;20024;-70
2023/08/19 06:23:27;;;;;;;7.15;4.00;;;;;;;20.37;100.00;96219.91;5097640;28;20098;-72
2023/08/19 06:25:53;;;;;;;4.88;3.70;;;;;;;20.70;100.00;96216.72;5103183;28;20091;-69
2023/08/19 06:28:21;;;;;;;4.40;4.10;;;;;;;21.04;100.00;96215.13;5111155;28;20107;-69
2023/08/19 06:30:47;;;;;;;5.65;3.40;;;;;;;21.21;100.00;96206.81;5107283;28;20106;-68
2023/08/19 06:33:14;;;;;;;4.55;4.15;;;;;;;21.32;100.00;96208.91;5114146;27;20028;-69
2023/08/19 06:35:40;;;;;;;4.97;3.75;;;;;;;21.46;100.00;96207.16;5107454;28;20049;-69
2023/08/19 06:38:14;;;;;;;4.75;4.03;;;;;;;21.65;100.00;96213.66;5097219;28;20020;-71
2023/08/19 06:40:45;;;;;;;6.30;3.80;;;;;;;21.81;100.00;96198.28;5099141;28;20036;-69
2023/08/19 06:43:11;;;;;;;5.38;3.72;;;;;;;21.92;100.00;96183.47;5099595;28;20061;-69
2023/08/19 06:45:37;;;;;;;6.78;3.25;;;;;;;22.08;100.00;96179.59;5096259;28;20028;-68
2023/08/19 06:48:03;;;;;;;6.07;3.40;;;;;;;22.22;100.00;96175.06;5098138;28;20055;-69
2023/08/19 06:50:28;;;;;;;3.88;3.38;;;;;;;22.25;100.00;96178.19;5111929;27;20110;-69
2023/08/19 06:52:54;;;;;;;5.28;3.63;;;;;;;22.41;100.00;96174.28;5097889;28;20097;-69
2023/08/19 06:55:20;;;;;;;6.30;3.67;;;;;;;22.52;100.00;96188.97;5110730;28;20111;-68
2023/08/19 06:58:09;;;;;;;6.30;3.55;;;;;;;22.65;100.00;96180.09;5109580;28;20123;-68
2023/08/19 07:00:36;;;;;;;4.25;3.38;;;;;;;22.77;100.00;96168.72;5101229;28;20042;-68
2023/08/19 07:03:02;;;;;;;6.03;3.50;;;;;;;22.81;100.00;96189.56;5116703;28;20391;-68
2023/08/19 07:05:29;;;;;;;4.97;3.83;;;;;;;22.87;100.00;96186.03;5097446;28;20531;-69
2023/08/19 07:07:57;;;;;;;5.18;3.42;;;;;;;22.97;100.00;96195.56;5096982;28;20059;-68
2023/08/19 07:10:23;;;;;;;6.95;3.97;;;;;;;23.12;100.00;96209.59;5105629;28;20048;-68
2023/08/19 07:12:49;;;;;;;4.43;3.65;;;;;;;23.39;100.00;96201.50;5096661;28;20031;-68
2023/08/19 07:15:15;;;;;;;3.72;3.38;;;;;;;23.64;100.00;96187.34;5096983;28;20024;-68
2023/08/19 07:17:47;;;;;;;5.72;3.65;;;;;;;23.77;100.00;96185.66;5095034;28;20035;-68
2023/08/19 07:20:20;;;;;;;7.07;3.83;;;;;;;23.78;100.00;96176.56;5097707;28;20028;-69
2023/08/19 07:22:48;;;;;;;6.45;4.03;;;;;;;23.81;100.00;96184.19;5105752;28;20035;-69
2023/08/19 07:25:14;;;;;;;4.68;3.50;;;;;;;23.87;100.00;96172.56;5098975;28;20024;-68
2023/08/19 07:27:42;;;;;;;3.28;3.05;;;;;;;23.85;100.00;96198.84;5103218;27;20035;-68
2023/08/19 07:30:09;;;;;;;5.07;3.50;;;;;;;23.92;100.00;96201.50;5096142;28;20092;-69
2023/08/19 07:32:35;;;;;;;4.03;3.67;;;;;;;23.85;100.00;96212.28;5106237;28;20047;-69
2023/08/19 07:35:02;;;;;;;8.27;3.33;;;;;;;23.78;100.00;96224.94;5110986;28;20043;-68
2023/08/19 07:37:28;;;;;;;4.25;3.40;;;;;;;23.75;100.00;96248.50;5096303;28;20028;-68
2023/08/19 07:39:54;;;;;;;4.68;3.60;;;;;;;23.81;100.00;96230.69;5103948;28;20030;-70
2023/08/19 07:42:19;;;;;;;7.65;3.85;;;;;;;23.87;100.00;96204.84;5106989;28;20098;-69
2023/08/19 07:44:45;;;;;;;4.20;3.03;;;;;;;23.89;100.00;96219.72;5097683;28;20153;-70
2023/08/19 07:47:10;;;;;;;6.45;4.00;;;;;;;23.91;100.00;96240.19;5096549;28;20028;-68
2023/08/19 07:49:38;;;;;;;6.97;4.20;;;;;;;23.94;100.00;96226.31;5104541;27;20499;-68
2023/08/19 07:52:04;;;;;;;8.15;4.05;;;;;;;24.06;100.00;96229.19;5104736;28;20024;-68
2023/08/19 07:54:29;;;;;;;7.38;3.78;;;;;;;24.22;100.00;96231.38;5096642;28;20016;-68
2023/08/19 07:56:57;;;;;;;4.47;4.05;;;;;;;24.46;100.00;96212.81;5109184;28;20396;-68
2023/08/19 07:59:24;;;;;;;4.15;3.42;;;;;;;24.87;100.00;96203.44;5096002;28;20060;-68
2023/08/19 08:01:49;;;;;;;4.40;3.13;;;;;;;25.45;100.00;96190.63;5095878;28;20038;-68
2023/08/19 08:04:15;;;;;;;4.47;3.25;;;;;;;25.67;100.00;96182.09;5095929;28;20023;-68
2023/08/19 08:06:40;;;;;;;5.28;3.70;;;;;;;25.82;100.00;96189.78;5095700;28;20028;-68
2023/08/19 08:09:05;;;;;;;4.43;3.28;;;;;;;26.33;100.00;96183.34;5100490;28;20019;-68
2023/08/19 08:11:31;;;;;;;5.03;3.50;;;;;;;26.75;100.00;96175.19;5095521;28;20032;-68
2023/08/19 08:13:57;;;;;;;3.80;3.40;;;;;;;26.97;100.00;96161.16;5095614;28;20024;-68
2023/08/19 08:16:22;;;;;;;6.47;3.78;;;;;;;27.36;100.00;96155.22;5095645;28;20035;-68
2023/08/19 08:18:48;;;;;;;3.85;3.25;;;;;;;27.66;100.00;96152.38;5098541;28;20492;-68
2023/08/19 08:21:14;;;;;;;4.60;3.30;;;;;;;28.10;100.00;96156.44;5095275;28;20024;-68
2023/08/19 08:23:41;;;;;;;6.00;3.85;;;;;;;28.40;100.00;96147.22;5109040;28;20034;-68
2023/08/19 08:26:06;;;;;;;5.47;3.08;;;;;;;28.72;100.00;96155.63;5106964;27;20034;-68
2023/08/19 08:28:32;;;;;;;4.35;3.03;;;;;;;28.81;100.00;96155.25;5101868;27;20048;-68
2023/08/19 08:30:58;;;;;;;4.40;3.78;;;;;;;29.02;100.00;96150.94;5104599;28;20640;-68
2023/08/19 08:33:25;;;;;;;8.57;3.50;;;;;;;29.03;100.00;96155.28;5106088;27;20034;-69
2023/08/19 08:35:51;;;;;;;4.95;3.25;;;;;;;28.83;100.00;96153.91;5095245;28;20063;-68
2023/08/19 08:38:16;;;;;;;3.67;2.63;;;;;;;29.25;100.00;96152.63;5105719;28;20011;-68
2023/08/19 08:40:42;;;;;;;6.03;2.90;;;;;;;29.33;100.00;96150.56;5103562;28;20052;-68
2023/08/19 08:43:07;;;;;;;5.82;3.35;;;;;;;29.78;100.00;96141.38;5105433;28;20013;-68
2023/08/19 08:45:33;;;;;;;4.25;3.08;;;;;;;29.66;100.00;96149.63;5095213;28;20057;-68
2023/08/19 08:48:02;;;;;;;6.55;2.95;;;;;;;29.74;100.00;96142.94;5109779;28;20023;-68
2023/08/19 08:50:28;;;;;;;6.43;2.80;;;;;;;29.71;100.00;96144.28;5102835;27;20477;-68
2023/08/19 08:52:56;;;;;;;5.85;3.00;;;;;;;29.85;100.00;96146.59;5096078;28;20024;-68
2023/08/19 08:55:21;;;;;;;5.78;3.03;;;;;;;30.18;100.00;96144.81;5107874;28;20023;-68
2023/08/19 08:57:46;;;;;;;5.43;2.75;;;;;;;30.76;100.00;96148.84;5094457;28;20088;-68
2023/08/19 09:00:14;;;;;;;4.28;2.88;;;;;;;30.64;100.00;96141.69;5094597;28;20220;-68
2023/08/19 09:02:40;;;;;;;3.13;2.83;;;;;;;31.01;100.00;96142.75;5093317;28;20028;-68
2023/08/19 09:05:07;;;;;;;3.47;3.08;;;;;;;31.25;100.00;96129.63;5094553;28;20750;-68
2023/08/19 09:07:40;;;;;;;3.78;3.15;;;;;;;31.20;100.00;96137.75;5096412;28;20540;-68
2023/08/19 09:10:14;;;;;;;4.00;2.80;;;;;;;31.16;100.00;96140.16;5094567;28;20020;-68
2023/08/19 09:12:43;;;;;;;7.40;3.33;;;;;;;31.20;100.00;96131.50;5095401;28;20095;-68
2023/08/19 09:15:11;;;;;;;4.70;2.70;;;;;;;31.15;100.00;96133.06;5097679;28;20381;-68
2023/08/19 09:17:37;;;;;;;5.22;3.08;;;;;;;31.05;100.00;96138.44;5094531;28;20048;-68
2023/08/19 09:20:06;;;;;;;3.40;2.70;;;;;;;31.28;100.00;96134.53;5095227;28;20019;-68
2023/08/19 09:22:32;;;;;;;4.03;2.80;;;;;;;30.94;100.00;96134.03;5094424;28;20031;-68
2023/08/19 09:24:58;;;;;;;3.85;2.97;;;;;;;30.87;100.00;96142.41;5095890;28;20020;-68
2023/08/19 09:27:26;;;;;;;4.05;3.40;;;;;;;31.06;100.00;96136.53;5113327;27;20054;-68
2023/08/19 09:29:52;;;;;;;5.43;3.00;;;;;;;31.27;100.00;96138.31;5107480;28;20147;-68
2023/08/19 09:32:31;;;;;;;3.03;2.83;;;;;;;31.50;100.00;96136.25;5096335;28;20024;-68
2023/08/19 09:35:12;;;;;;;6.80;2.88;;;;;;;31.16;100.00;96136.59;5113422;28;20020;-68
2023/08/19 09:37:38;;;;;;;6.03;3.03;;;;;;;30.87;100.00;96135.09;5107019;28;20104;-68
2023/08/19 09:40:08;;;;;;;8.75;3.20;;;;;;;30.95;100.00;96143.81;5094025;28;20024;-68
2023/08/19 09:42:37;;;;;;;4.45;2.90;;;;;;;31.04;100.00;96136.00;5094129;28;20484;-68
2023/08/19 09:45:06;;;;;;;4.72;2.83;;;;;;;31.36;100.00;96135.94;5094356;28;20090;-69
2023/08/19 09:47:48;;;;;;;5.38;3.40;;;;;;;31.24;100.00;96132.59;5094166;28;20107;-68
2023/08/19 09:50:15;;;;;;;3.88;3.05;;;;;;;31.42;100.00;96134.06;5095558;28;20030;-68
2023/08/19 09:52:40;;;;;;;6.28;3.08;;;;;;;31.46;100.00;96137.03;5096493;28;20020;-68
2023/08/19 09:55:06;;;;;;;3.15;2.75;;;;;;;31.62;100.00;96135.22;5104637;28;20468;-68
2023/08/19 09:57:33;;;;;;;6.15;2.80;;;;;;;31.52;100.00;96133.28;5094531;28;20012;-68
2023/08/19 10:00:00;;;;;;;4.50;2.80;;;;;;;31.85;100.00;96136.69;5093726;28;20107;-69
2023/08/19 10:02:27;;;;;;;5.97;2.63;;;;;;;31.75;100.00;96133.91;5092564;28;20015;-69
2023/08/19 10:04:55;;;;;;;6.15;2.88;;;;;;;31.83;100.00;96134.25;5094646;28;20024;-68
2023/08/19 10:07:27;;;;;;;4.35;2.88;;;;;;;31.26;100.00;96123.09;5093940;28;20062;-68
2023/08/19 10:09:54;;;;;;;5.18;2.97;;;;;;;31.56;100.00;96128.94;5093597;28;20028;-68
2023/08/19 10:12:22;;;;;;;7.13;3.13;;;;;;;31.84;100.00;96129.59;5101584;28;20121;-68
2023/08/19 10:14:51;;;;;;;3.40;2.63;;;;;;;32.10;100.00;96127.75;5092452;28;20035;-68
2023/08/19 10:17:19;;;;;;;5.05;3.00;;;;;;;32.10;100.00;96129.66;5103254;28;20476;-68
2023/08/19 10:19:56;;;;;;;3.47;2.97;;;;;;;32.12;100.00;96130.19;5100168;28;20623;-68
2023/08/19 10:22:22;;;;;;;4.45;2.70;;;;;;;32.20;100.00;96124.25;5093922;28;20083;-68
2023/08/19 10:24:51;;;;;;;3.72;2.80;;;;;;;32.29;100.00;96122.59;5092181;28;20028;-68
2023/08/19 10:27:18;;;;;;;2.80;2.47;;;;;;;32.34;100.00;96121.00;5098232;28;20115;-68
2023/08/19 10:29:48;;;;;;;7.00;3.22;;;;;;;32.31;100.00;96122.34;5093283;28;20400;-68
2023/08/19 10:32:31;;;;;;;5.72;2.75;;;;;;;32.27;100.00;96118.50;5093866;28;20030;-68
2023/08/19 10:35:08;;;;;;;3.20;2.40;;;;;;;32.32;100.00;96117.69;5093314;28;20204;-68
2023/08/19 10:37:35;;;;;;;3.40;2.90;;;;;;;32.58;100.00;96121.28;5094041;28;20032;-68
2023/08/19 10:40:11;;;;;;;5.50;2.65;;;;;;;32.58;100.00;96115.84;5093477;28;20480;-68
2023/08/19 10:42:36;;;;;;;3.53;2.40;;;;;;;32.27;100.00;96113.06;5106473;28;20396;-68
2023/08/19 10:45:03;;;;;;;4.00;2.90;;;;;;;32.23;100.00;96109.25;5093680;28;20035;-68
2023/08/19 10:47:29;;;;;;;3.67;2.70;;;;;;;32.67;100.00;96107.94;5092228;28;20083;-67
2023/08/19 10:50:02;;;;;;;3.22;2.78;;;;;;;32.75;100.00;96110.09;5097714;28;20020;-67
2023/08/19 10:52:28;;;;;;;4.22;2.83;;;;;;;33.04;100.00;96117.69;5090029;28;20044;-67
2023/08/19 10:54:57;;;;;;;4.00;2.85;;;;;;;32.93;100.00;96113.38;5108489;28;20027;-68
2023/08/19 10:57:27;;;;;;;2.47;2.28;;;;;;;32.91;100.00;96113.63;5116192;28;20019;-68
2023/08/19 10:59:57;;;;;;;5.65;2.90;;;;;;;32.90;100.00;96105.75;5104381;28;20032;-68
2023/08/19 11:02:27;;;;;;;7.85;2.80;;;;;;;33.16;100.00;96111.97;5096785;28;20027;-68
2023/08/19 11:04:53;;;;;;;5.18;2.78;;;;;;;33.47;100.00;96113.78;5095393;28;20032;-68
2023/08/19 11:07:20;;;;;;;4.20;3.03;;;;;;;33.76;100.00;96105.72;5099108;28;20032;-68
2023/08/19 11:09:47;;;;;;;2.85;2.30;;;;;;;33.85;100.00;96103.22;5102297;28;20028;-68
2023/08/19 11:12:19;;;;;;;6.43;2.97;;;;;;;33.61;100.00;96103.88;5095536;28;20024;-68
2023/08/19 11:14:52;;;;;;;3.80;2.75;;;;;;;33.83;100.00;96106.25;5096925;28;20020;-68
2023/08/19 11:17:26;;;;;;;5.00;3.03;;;;;;;33.92;100.00;96098.25;5095485;28;20023;-68
2023/08/19 11:19:51;;;;;;;3.58;2.55;;;;;;;33.90;100.00;96099.66;5096638;28;20032;-68
2023/08/19 11:22:17;;;;;;;5.55;2.72;;;;;;;34.31;100.00;96093.09;5104723;28;20026;-68